首页
METAR-TAF:

METAR-TAF

机场 :

邦里基國際機場

塔拉瓦环礁, 基里巴斯

纬度: 01-21N, 经度: 172-55E, 海拔: 2米

当前天气观测

该预报发布于18分钟前的04:00 UTC
风速5节,风向
温度 31°C
湿度 71%
气压 1007 hPa
能见度10公里或以上
少量云层高于2000英尺

METAR: NGTA 230400Z 36005KT 9999 FEW020 31/25 Q1007

时间: 18:18 (04:18 UTC)

预报

该预报发布于5小时和7分钟前的23:11 UTC
预报有效从23日的 00点(UTC)到 23日的 24点(UTC)
风速10节,风向
能见度10公里或以上
散云层高于1800英尺

TAF: NGTA 222311Z 2300/2324 08010KT 9999 SCT018

超过4000个机场的气象观测和天气预报(METAR&TAF报告)。

可查询的气象台以黄色和红色小点在地图上表示。

将鼠标移到小点上方,可查看气象台名称。

然后点击查看天气观测和预报。

如需切换地图:点击带黑十字的绿色按钮放大地图;点击带横线的绿色按钮缩小地图;或者点击绿色箭头查看邻近地区的地图。


METAR-TAF: